Have a Safe July 4th! 

Flight Track Log - Related Links

Times and Time Zones

All times are in EDT time to prevent confusion due to time zone crossing. See the EJA982 flight status page for this flight to view local times or setup timezone preferences in your user account.

Time Position Orientation Groundspeed Altitude Reporting Facility
EDT Latitude Longitude Course Direction KTS MPH feet Rate Location/Type
Sun 03:09:28 PM 40.0036 -82.9239 270° West 177 204 1,700  Level Indianapolis Center
Sun 03:10:20 PM 40.0072 -82.9886 274° West 221 254 3,900 1,842 Climbing Indianapolis Center
Sun 03:11:22 PM 40.0086 -83.0794 271° West 239 275 5,200 2,565 Climbing Indianapolis Center
Sun 03:12:24 PM 40.0125 -83.1742 273° West 257 296 9,200 2,613 Climbing Indianapolis Center
Sun 03:13:26 PM 40.0181 -83.2875 274° West 312 359 10,600 2,081 Climbing Indianapolis Center
Sun 03:14:28 PM 40.0161 -83.4311 269° West 338 389 13,500 2,293 Climbing Indianapolis Center
Sun 03:15:00 PM 40.0000 -83.8452 270° West  Level FlightAware Approximate
Sun 03:15:29 PM 40.0086 -83.5547 266° West 343 395 15,300  Level Indianapolis Center
Sun 03:16:31 PM 40.0008 -83.6822 265° West 354 407 16,800 1,403 Climbing Indianapolis Center
Sun 03:17:33 PM 39.9933 -83.8136 266° West 362 417 18,200 1,306 Climbing Indianapolis Center
Sun 03:18:35 PM 39.9850 -83.9494 265° West 372 428 19,500 1,258 Climbing Indianapolis Center
Sun 03:19:37 PM 39.9772 -84.0847 266° West 372 428 20,800 1,220 Climbing Indianapolis Center
Sun 03:20:38 PM 39.9686 -84.2208 265° West 376 433 22,000 1,171 Climbing Indianapolis Center
Sun 03:21:40 PM 39.9575 -84.3847 265° West 385 443 23,200 1,065 Climbing Indianapolis Center
Sun 03:22:42 PM 39.9486 -84.5272 265° West 392 451 24,200 1,024 Climbing Indianapolis Center
Sun 03:23:43 PM 39.9386 -84.6728 265° West 399 459 25,300 1,122 Climbing Indianapolis Center
Sun 03:24:45 PM 39.9281 -84.8181 265° West 400 460 26,500 1,065 Climbing Indianapolis Center
Sun 03:25:47 PM 39.9183 -84.9658 265° West 405 466 27,500 976 Climbing Indianapolis Center
Sun 03:26:48 PM 39.9083 -85.1147 265° West 410 472 28,500 1,024 Climbing Indianapolis Center
Sun 03:27:50 PM 39.8975 -85.2672 265° West 417 480 29,600 968 Climbing Indianapolis Center
Sun 03:28:52 PM 39.8867 -85.4208 265° West 421 484 30,500 1,065 Climbing Indianapolis Center
Sun 03:29:54 PM 39.8747 -85.5753 264° West 425 489 31,800 1,403 Climbing Indianapolis Center
Sun 03:30:56 PM 39.8192 -85.7394 246° West 422 486 33,400 1,073 Climbing Indianapolis Center
Sun 03:31:57 PM 39.8011 -85.8903 261° West 425 489 34,000 1,415 Climbing Indianapolis Center
Sun 03:32:59 PM 39.8050 -86.0314 272° West 439 505 36,300 1,935 Climbing Indianapolis Center
Sun 03:34:01 PM 39.8094 -86.2067 272° West 412 474 38,000 823 Climbing Indianapolis Center
Sun 03:35:03 PM 39.8125 -86.3564 272° West 412 474 38,000  Level Indianapolis Center
Sun 03:36:04 PM 39.8158 -86.5150 272° West 429 494 38,000 49 Level Indianapolis Center
Sun 03:37:06 PM 39.8197 -86.6792 272° West 448 516 38,100 532 Climbing Indianapolis Center
Sun 03:38:08 PM 39.8228 -86.8417 271° West 450 518 39,100 919 Climbing Indianapolis Center
Sun 03:39:10 PM 39.8258 -86.9992 271° West 440 506 40,000 439 Climbing Indianapolis Center
Sun 03:40:11 PM 39.8286 -87.1603 271° West 443 510 40,000  Level Indianapolis Center
Sun 03:41:13 PM 39.8306 -87.3242 271° West 450 518 40,000  Level Indianapolis Center
Sun 03:42:15 PM 39.8331 -87.5264 271° West 462 532 40,000  Level Indianapolis Center
Sun 03:43:17 PM 39.8358 -87.6944 271° West 464 534 40,000  Level Indianapolis Center
Sun 03:44:19 PM 39.8369 -87.8628 271° West 465 535 40,000  Level Indianapolis Center
Sun 03:45:20 PM 39.8383 -88.0297 271° West 465 535 40,000  Level Indianapolis Center
Sun 03:46:01 PM 39.8375 -88.1350 269° West 464 534 40,000  Level Kansas City Center
Sun 03:47:03 PM 39.8394 -88.3236 271° West 464 534 40,000  Level Kansas City Center
Sun 03:48:05 PM 39.8397 -88.4919 270° West 466 536 40,000  Level Kansas City Center
Sun 03:49:07 PM 39.8411 -88.6594 271° West 464 534 40,000  Level Kansas City Center
Sun 03:50:09 PM 39.8411 -88.8294 270° West 467 537 40,000  Level Kansas City Center
Sun 03:51:11 PM 39.8408 -88.9981 270° West 466 536 40,000  Level Kansas City Center
Sun 03:52:13 PM 39.8411 -89.1661 270° West 465 535 40,000  Level Kansas City Center
Sun 03:53:14 PM 39.8400 -89.3672 270° West 463 533 40,000  Level Kansas City Center
Sun 03:54:16 PM 39.8389 -89.5350 270° West 463 533 40,000  Level Kansas City Center
Sun 03:55:18 PM 39.8378 -89.7003 270° West 460 529 40,000  Level Kansas City Center
Sun 03:56:20 PM 39.8217 -89.8639 263° West 455 524 40,000  Level Kansas City Center
Sun 03:57:22 PM 39.8078 -90.0289 264° West 457 526 40,000  Level Kansas City Center
Sun 03:58:24 PM 39.7933 -90.1953 264° West 459 528 40,000  Level Kansas City Center
Sun 03:59:26 PM 39.7778 -90.3606 263° West 461 531 40,000  Level Kansas City Center
Sun 04:00:28 PM 39.7625 -90.5281 263° West 462 532 40,000  Level Kansas City Center
Sun 04:01:30 PM 39.7442 -90.7175 263° West 466 536 40,000  Level Kansas City Center
Sun 04:02:32 PM 39.7286 -90.8819 263° West 464 534 40,000  Level Kansas City Center
Sun 04:03:34 PM 39.7114 -91.0478 262° West 466 536 40,000  Level Kansas City Center
Sun 04:04:36 PM 39.6919 -91.2478 263° West 467 537 40,000  Level Kansas City Center
Sun 04:05:38 PM 39.6772 -91.3906 262° West 468 539 40,000  Level Kansas City Center
Sun 04:06:40 PM 39.6575 -91.5894 263° West 467 537 40,000  Level Kansas City Center
Sun 04:07:42 PM 39.6400 -91.7578 262° West 470 541 40,000  Level Kansas City Center
Sun 04:08:44 PM 39.6222 -91.9244 262° West 469 540 40,000  Level Kansas City Center
Sun 04:09:46 PM 39.6044 -92.0919 262° West 470 541 40,000  Level Kansas City Center
Sun 04:10:48 PM 39.5856 -92.2603 262° West 473 544 40,000  Level Kansas City Center
Sun 04:11:50 PM 39.5667 -92.4281 262° West 472 543 40,000  Level Kansas City Center
Sun 04:12:52 PM 39.5439 -92.6267 262° West 469 540 40,000  Level Kansas City Center
Sun 04:14:00 PM 39.5226 -92.8111 262° West  Level FlightAware Approximate
Sun 04:14:56 PM 39.5061 -92.9567 262° West 465 535 40,000  Level Kansas City Center
Sun 04:15:59 PM 39.4875 -93.1219 262° West 465 535 40,000  Level Kansas City Center
Sun 04:17:01 PM 39.4672 -93.2853 261° West 464 534 40,000  Level Kansas City Center
Sun 04:18:03 PM 39.4436 -93.4819 261° West 464 534 40,000  Level Kansas City Center
Sun 04:19:05 PM 39.4239 -93.6458 261° West 464 534 40,000  Level Kansas City Center
Sun 04:20:07 PM 39.4028 -93.8233 261° West 465 535 40,000  Level Kansas City Center
Sun 04:21:09 PM 39.3942 -93.9819 266° West 461 531 40,000  Level Kansas City Center
Sun 04:22:10 PM 39.4061 -94.1161 277° West 469 540 40,000  Level Kansas City Center
Sun 04:23:13 PM 39.4214 -94.3281 275° West 466 536 40,000  Level Kansas City Center
Sun 04:24:15 PM 39.4328 -94.4889 275° West 469 540 40,000  Level Kansas City Center
Sun 04:25:17 PM 39.4464 -94.6764 275° West 471 542 40,000  Level Kansas City Center
Sun 04:26:19 PM 39.4561 -94.8372 275° West 471 542 40,000  Level Kansas City Center
Sun 04:27:21 PM 39.4681 -95.0231 275° West 468 539 40,000  Level Kansas City Center
Sun 04:28:23 PM 39.4803 -95.2100 275° West 473 544 40,000  Level Kansas City Center
Sun 04:29:25 PM 39.4908 -95.3781 275° West 472 543 40,000  Level Kansas City Center
Sun 04:30:27 PM 39.5014 -95.5569 274° West 472 543 40,000  Level Kansas City Center
Sun 04:31:29 PM 39.5108 -95.7181 274° West 471 542 40,000  Level Kansas City Center
Sun 04:32:32 PM 39.5203 -95.9075 274° West 473 544 40,000  Level Kansas City Center
Sun 04:33:33 PM 39.5289 -96.0692 274° West 472 543 40,000  Level Kansas City Center
Sun 04:34:35 PM 39.5400 -96.2597 274° West 475 547 40,000  Level Kansas City Center
Sun 04:35:37 PM 39.5489 -96.4219 274° West 474 545 40,000  Level Kansas City Center
Sun 04:36:39 PM 39.5572 -96.5847 274° West 474 545 40,000  Level Kansas City Center
Sun 04:37:41 PM 39.5672 -96.7758 274° West 475 547 40,000  Level Kansas City Center
Sun 04:38:43 PM 39.5756 -96.9522 274° West 470 541 40,000  Level Kansas City Center
Sun 04:39:45 PM 39.5842 -97.1239 274° West 475 547 40,000  Level Kansas City Center
Sun 04:40:47 PM 39.5925 -97.2911 274° West 477 549 40,000  Level Kansas City Center
Sun 04:41:49 PM 39.6014 -97.4614 274° West 475 547 40,000  Level Kansas City Center
Sun 04:42:51 PM 39.6089 -97.6703 273° West 480 552 40,000  Level Kansas City Center
Sun 04:43:53 PM 39.6156 -97.8431 273° West 478 550 40,000  Level Kansas City Center
Sun 04:44:55 PM 39.6231 -98.0175 273° West 482 555 40,000  Level Kansas City Center
Sun 04:45:57 PM 39.6289 -98.1886 273° West 478 550 40,000  Level Kansas City Center
Sun 04:46:12 PM 39.6297 -98.2236 272° West 479 551 40,000  Level Minneapolis Center
Sun 04:47:14 PM 39.6353 -98.3967 272° West 479 551 40,000  Level Minneapolis Center
Sun 04:48:16 PM 39.6422 -98.6039 273° West 478 550 40,000  Level Minneapolis Center
Sun 04:49:18 PM 39.6489 -98.7786 273° West 481 554 40,000  Level Minneapolis Center
Sun 04:50:20 PM 39.6539 -98.9525 272° West 482 555 40,000  Level Minneapolis Center
Sun 04:51:31 PM 39.6606 -99.1578 272° West 473 544 40,000  Level Denver Center
Sun 04:52:32 PM 39.6647 -99.3300 272° West 475 547 40,000  Level Denver Center
Sun 04:53:34 PM 39.6694 -99.5019 272° West 473 544 40,000  Level Denver Center
Sun 04:54:36 PM 39.6742 -99.6747 272° West 476 548 40,000  Level Denver Center
Sun 04:55:38 PM 39.6781 -99.8456 272° West 474 545 40,000  Level Denver Center
Sun 04:56:39 PM 39.6822 -100.0331 272° West 474 545 40,000  Level Denver Center
Sun 04:57:41 PM 39.6853 -100.1956 271° West 470 541 40,000  Level Denver Center
Sun 04:58:43 PM 39.6894 -100.3883 272° West 475 547 40,000  Level Denver Center
Sun 04:59:45 PM 39.6928 -100.5514 272° West 472 543 40,000  Level Denver Center
Sun 05:00:47 PM 39.6953 -100.7417 271° West 471 542 40,000  Level Denver Center
Sun 05:01:48 PM 39.6978 -100.9042 271° West 471 542 40,000  Level Denver Center
Sun 05:02:50 PM 39.7006 -101.0678 271° West 473 544 40,000  Level Denver Center
Sun 05:03:52 PM 39.7019 -101.2553 271° West 468 539 40,000  Level Denver Center
Sun 05:04:54 PM 39.7039 -101.4169 271° West 467 537 40,000  Level Denver Center
Sun 05:05:56 PM 39.7053 -101.6047 271° West 465 535 40,000  Level Denver Center
Sun 05:06:58 PM 39.7064 -101.7653 271° West 464 534 40,000  Level Denver Center
Sun 05:07:59 PM 39.7072 -101.9536 270° West 466 536 40,000  Level Denver Center
Sun 05:09:01 PM 39.7083 -102.1153 271° West 468 539 40,000  Level Denver Center
Sun 05:10:03 PM 39.7086 -102.3039 270° West 468 539 40,000  Level Denver Center
Sun 05:11:05 PM 39.7092 -102.4647 270° West 465 535 40,000  Level Denver Center
Sun 05:12:07 PM 39.7086 -102.6247 270° West 465 535 40,000  Level Denver Center
Sun 05:13:09 PM 39.7081 -102.8056 270° West 464 534 40,000  Level Denver Center
Sun 05:14:11 PM 39.7069 -102.9714 270° West 463 533 40,000  Level Denver Center
Sun 05:15:25 PM 39.7072 -103.1728 270° West 465 535 40,000  Level Denver Center
Sun 05:16:26 PM 39.7053 -103.3392 269° West 462 532 40,000  Level Denver Center
Sun 05:17:28 PM 39.7033 -103.5394 269° West 465 535 40,000  Level Denver Center
Sun 05:18:30 PM 39.7022 -103.7072 270° West 464 534 40,000  Level Denver Center
Sun 05:19:32 PM 39.7006 -103.8736 269° West 459 528 40,000  Level Denver Center
Sun 05:20:34 PM 39.6986 -104.0442 269° West 463 533 40,000  Level Denver Center
Sun 05:21:36 PM 39.6967 -104.2092 269° West 458 527 40,000  Level Denver Center
Sun 05:22:37 PM 39.6936 -104.3764 269° West 472 543 40,000  Level Denver Center
Sun 05:23:39 PM 39.6903 -104.5744 269° West 462 532 40,000  Level Denver Center
Sun 05:24:41 PM 39.6792 -104.7367 265° West 491 565 40,000  Level Denver Center
Sun 05:25:43 PM 39.6622 -104.9033 263° West 473 544 40,000  Level Denver Center
Sun 05:26:45 PM 39.6444 -105.0661 262° West 462 532 40,000  Level Denver Center
Sun 05:27:47 PM 39.6228 -105.2669 262° West 465 535 40,000  Level Denver Center
Sun 05:28:48 PM 39.6064 -105.4289 263° West 454 522 40,000  Level Denver Center
Sun 05:29:50 PM 39.5861 -105.6006 261° West 473 544 40,000  Level Denver Center
Sun 05:30:52 PM 39.5669 -105.7681 262° West 468 539 40,000  Level Denver Center
Sun 05:31:54 PM 39.5525 -105.9294 263° West 452 520 40,000  Level Denver Center
Sun 05:32:56 PM 39.5336 -106.0969 262° West 466 536 40,000  Level Denver Center
Sun 05:33:57 PM 39.5125 -106.2628 261° West 470 541 40,000  Level Denver Center
Sun 05:34:59 PM 39.4900 -106.4636 262° West 470 541 40,000  Level Denver Center
Sun 05:36:13 PM 39.4681 -106.6506 261° West 467 537 40,000  Level Denver Center
Sun 05:37:15 PM 39.4436 -106.8372 260° West 470 541 40,000  Level Denver Center
Sun 05:38:17 PM 39.4200 -106.9950 259° West 468 539 40,000  Level Denver Center
Sun 05:39:19 PM 39.3847 -107.1758 256° West 465 535 40,000  Level Denver Center
Sun 05:40:21 PM 39.3542 -107.3317 256° West 467 537 40,000  Level Denver Center
Sun 05:41:22 PM 39.3186 -107.5150 256° West 469 540 40,000  Level Denver Center
Sun 05:42:24 PM 39.2867 -107.6725 255° West 471 542 40,000  Level Denver Center
Sun 05:43:26 PM 39.2564 -107.8278 256° West 468 539 40,000  Level Denver Center
Sun 05:44:28 PM 39.2192 -108.0106 255° West 467 537 40,000  Level Denver Center
Sun 05:45:30 PM 39.1875 -108.1678 255° West 469 540 40,000  Level Denver Center
Sun 05:46:31 PM 39.1508 -108.3503 256° West 469 540 40,000  Level Denver Center
Sun 05:47:33 PM 39.1181 -108.5089 255° West 475 547 40,000  Level Denver Center
Sun 05:48:35 PM 39.0853 -108.6664 255° West 473 544 40,000  Level Denver Center
Sun 05:49:37 PM 39.0497 -108.8506 256° West 471 542 40,000  Level Denver Center
Sun 05:50:38 PM 39.0264 -109.0114 259° West 474 545 40,000  Level Denver Center
Sun 05:51:40 PM 38.9981 -109.1983 259° West 476 548 40,000  Level Denver Center
Sun 05:52:42 PM 38.9744 -109.3597 259° West 477 549 40,000  Level Denver Center
Sun 05:53:44 PM 38.9508 -109.5200 259° West 477 549 40,000  Level Denver Center
Sun 05:54:36 PM 38.9264 -109.6806 259° West 477 549 40,000  Level Salt Lake Center
Sun 05:55:38 PM 38.9017 -109.8422 259° West 481 554 40,000  Level Salt Lake Center
Sun 05:56:40 PM 38.8714 -110.0322 258° West 484 557 40,000  Level Salt Lake Center
Sun 05:57:41 PM 38.8458 -110.1956 259° West 486 559 40,000  Level Salt Lake Center
Sun 05:58:43 PM 38.8156 -110.3872 259° West 491 565 40,000  Level Salt Lake Center
Sun 05:59:45 PM 38.7894 -110.5517 259° West 492 566 40,000  Level Salt Lake Center
Sun 06:00:46 PM 38.7622 -110.7178 258° West 495 570 40,000  Level Salt Lake Center
Sun 06:01:48 PM 38.7311 -110.9108 258° West 496 571 40,000  Level Salt Lake Center
Sun 06:02:50 PM 38.7011 -111.0883 258° West 496 571 40,000  Level Salt Lake Center
Sun 06:03:51 PM 38.6714 -111.2617 258° West 498 573 40,000  Level Salt Lake Center
Sun 06:04:53 PM 38.6419 -111.4344 258° West 499 574 40,000  Level Salt Lake Center
Sun 06:05:54 PM 38.6133 -111.6081 258° West 501 577 40,000  Level Salt Lake Center
Sun 06:06:56 PM 38.5831 -111.7817 257° West 502 578 40,000  Level Salt Lake Center
Sun 06:07:58 PM 38.5464 -111.9903 257° West 504 580 40,000  Level Salt Lake Center
Sun 06:08:59 PM 38.5222 -112.1669 260° West 506 582 40,000  Level Salt Lake Center
Sun 06:10:01 PM 38.5111 -112.3450 265° West 506 582 40,000  Level Salt Lake Center
Sun 06:11:03 PM 38.4986 -112.5253 265° West 511 588 40,000  Level Salt Lake Center
Sun 06:12:04 PM 38.4850 -112.7036 264° West 509 586 40,000  Level Salt Lake Center
Sun 06:13:06 PM 38.4714 -112.8822 264° West 510 587 40,000  Level Salt Lake Center
Sun 06:14:08 PM 38.4578 -113.0644 265° West 514 592 40,000  Level Salt Lake Center
Sun 06:15:09 PM 38.4406 -113.2794 264° West 513 590 40,000  Level Salt Lake Center
Sun 06:16:11 PM 38.4261 -113.4594 264° West 513 590 40,000  Level Salt Lake Center
Sun 06:17:12 PM 38.4128 -113.6386 265° West 512 589 40,000  Level Salt Lake Center
Sun 06:18:14 PM 38.3981 -113.8175 264° West 511 588 40,000  Level Salt Lake Center
Sun 06:19:16 PM 38.3828 -113.9992 264° West 515 593 40,000  Level Salt Lake Center
Sun 06:20:17 PM 38.3678 -114.1792 264° West 514 592 40,000  Level Salt Lake Center
Sun 06:21:19 PM 38.3478 -114.3983 263° West 522 601 40,000  Level Salt Lake Center
Sun 06:22:21 PM 38.3319 -114.5794 264° West 519 597 40,000  Level Salt Lake Center
Sun 06:23:22 PM 38.3161 -114.7606 264° West 519 597 40,000  Level Salt Lake Center
Sun 06:24:24 PM 38.3000 -114.9411 264° West 517 595 40,000  Level Salt Lake Center
Sun 06:25:25 PM 38.2819 -115.1222 263° West 518 596 40,000  Level Salt Lake Center
Sun 06:26:27 PM 38.2658 -115.3033 264° West 518 596 40,000  Level Salt Lake Center
Sun 06:27:28 PM 38.2464 -115.4983 263° West 518 596 40,000  Level Salt Lake Center
Sun 06:28:30 PM 38.2283 -115.6803 263° West 518 596 40,000  Level Salt Lake Center
Sun 06:29:32 PM 38.2100 -115.8608 263° West 517 595 40,000  Level Salt Lake Center
Sun 06:30:33 PM 38.1914 -116.0417 263° West 517 595 40,000  Level Salt Lake Center
Sun 06:31:35 PM 38.1731 -116.2236 263° West 517 595 40,000  Level Salt Lake Center
Sun 06:32:36 PM 38.1506 -116.4386 262° West 513 590 40,000  Level Salt Lake Center
Sun 06:33:09 PM 38.1439 -116.5111 263° West 516 594 40,000  Level Oakland Center
Sun 06:34:11 PM 38.1244 -116.6911 262° West 515 593 40,000  Level Oakland Center
Sun 06:34:39 PM 38.1119 -116.7994 262° West 513 590 40,000  Level Salt Lake Center
Sun 06:35:41 PM 38.0922 -116.9808 262° West 515 593 40,000  Level Salt Lake Center
Sun 06:36:13 PM 38.0844 -117.0531 262° West 515 593 40,000  Level Oakland Center
Sun 06:36:42 PM 38.0736 -117.1631 263° West 517 595 40,000  Level Salt Lake Center
Sun 06:37:15 PM 38.0644 -117.2461 262° West 522 601 40,000  Level Oakland Center
Sun 06:38:16 PM 38.0478 -117.4308 264° West 517 595 40,000  Level Oakland Center
Sun 06:39:17 PM 38.0264 -117.6131 262° West 519 597 40,000  Level Oakland Center
Sun 06:40:19 PM 38.0044 -117.8306 263° West 518 596 40,000  Level Oakland Center
Sun 06:41:20 PM 37.9850 -118.0114 262° West 518 596 40,000  Level Oakland Center
Sun 06:42:21 PM 37.9653 -118.1928 262° West 519 597 40,000  Level Oakland Center
Sun 06:43:23 PM 37.9447 -118.3728 262° West 519 597 40,000 -49 Level Oakland Center
Sun 06:44:24 PM 37.9247 -118.5536 262° West 520 598 39,900 -984 Descending Oakland Center
Sun 06:45:25 PM 37.9036 -118.7331 262° West 516 594 38,000 -927 Descending Oakland Center
Sun 06:46:27 PM 37.8822 -118.9161 262° West 523 602 38,000  Level Oakland Center
Sun 06:47:28 PM 37.8614 -119.0989 262° West 525 604 38,000  Level Oakland Center
Sun 06:48:29 PM 37.8403 -119.2775 262° West 510 587 38,000  Level Oakland Center
Sun 06:49:30 PM 37.8194 -119.4550 262° West 508 585 38,000  Level Oakland Center
Sun 06:50:32 PM 37.7978 -119.6292 261° West 504 580 38,000  Level Oakland Center
Sun 06:51:33 PM 37.7769 -119.8053 262° West 507 583 38,000 -934 Level Oakland Center
Sun 06:52:34 PM 37.7492 -120.0175 261° West 511 588 36,100 -1,415 Descending Oakland Center
Sun 06:53:36 PM 37.7269 -120.1956 261° West 515 593 35,100 -1,512 Descending Oakland Center
Sun 06:54:37 PM 37.7050 -120.3686 261° West 502 578 33,000 -2,016 Descending Oakland Center
Sun 06:55:38 PM 37.6828 -120.5347 260° West 484 557 31,000 -2,508 Descending Oakland Center
Sun 06:56:39 PM 37.6642 -120.6819 261° West 436 502 27,900 -2,829 Descending Oakland Center
Sun 06:57:41 PM 37.6453 -120.8250 261° West 417 480 25,200 -2,661 Descending Oakland Center
Sun 06:58:34 PM 37.6333 -120.9667 264° West 398 458 22,800 -2,496 Descending Northern Cal TRACON
Sun 06:59:34 PM 37.6167 -121.0833 260° West 393 452 20,500 -2,300 Descending Northern Cal TRACON
Sun 07:00:34 PM 37.6000 -121.2167 261° West 369 425 18,200 -2,350 Descending Northern Cal TRACON
Sun 07:01:34 PM 37.5833 -121.3500 261° West 359 413 15,800 -2,250 Descending Northern Cal TRACON
Sun 07:02:34 PM 37.5667 -121.4667 260° West 347 399 13,700 -2,000 Descending Northern Cal TRACON
Sun 07:04:34 PM 37.5333 -121.6833 259° West 307 353 9,800 -1,767 Descending Northern Cal TRACON
Sun 07:05:34 PM 37.5167 -121.7833 258° West 287 330 8,400 -900 Descending Northern Cal TRACON
Sun 07:06:34 PM 37.4833 -121.8667 243° Southwest 251 289 8,000 -150 Descending Northern Cal TRACON
Sun 07:07:34 PM 37.4833 -121.9333 270° West 211 243 8,100 -450 Climbing Northern Cal TRACON
Sun 07:08:34 PM 37.5000 -122.0000 288° West 206 237 7,100 -1,250 Descending Northern Cal TRACON
Sun 07:09:34 PM 37.5167 -122.0667 288° West 207 238 5,600 -1,550 Descending Northern Cal TRACON
Sun 07:10:34 PM 37.5500 -122.1333 302° West 196 226 4,000 -1,446 Descending Northern Cal TRACON
Sun 07:10:57 PM 37.5483 -122.1550 264° West 200 230 3,600 -1,059 Descending Oakland Center
Sun 07:11:59 PM 37.5667 -122.2158 291° West 193 222 2,500 -1,024 Descending Oakland Center
Sun 07:13:00 PM 37.5847 -122.2758 291° West 188 216 1,500 -927 Descending Oakland Center
Sun 07:14:02 PM 37.5986 -122.3292 288° West 175 201 600 -683 Descending Oakland Center
Sun 07:15:03 PM 37.6194 -122.3697 303° West 154 177 100 -492 Descending Oakland Center
Sun 07:17:00 PM 37.6167 -122.3667 322° Northwest  Level FlightAware Approximate

Login

Don't have an account? Register now (free) for customized features, flight alerts, and more!